sensor_id;sensor_type;location;lat;lon;timestamp;temperature;humidity
34766;DHT22;20984;43.508;1.504;2023-07-16T00:02:14;19.00;99.90
34766;DHT22;20984;43.508;1.504;2023-07-16T00:04:40;19.00;99.90
34766;DHT22;20984;43.508;1.504;2023-07-16T00:07:05;18.90;99.90
34766;DHT22;20984;43.508;1.504;2023-07-16T00:09:31;18.80;99.90
34766;DHT22;20984;43.508;1.504;2023-07-16T00:11:57;18.80;99.90
34766;DHT22;20984;43.508;1.504;2023-07-16T00:14:22;18.70;99.90
34766;DHT22;20984;43.508;1.504;2023-07-16T00:16:48;18.70;99.90
34766;DHT22;20984;43.508;1.504;2023-07-16T00:19:14;18.70;99.90
34766;DHT22;20984;43.508;1.504;2023-07-16T00:21:40;18.70;99.90
34766;DHT22;20984;43.508;1.504;2023-07-16T00:24:06;18.60;99.90
34766;DHT22;20984;43.508;1.504;2023-07-16T00:26:32;18.60;99.90
34766;DHT22;20984;43.508;1.504;2023-07-16T00:28:57;18.60;99.90
34766;DHT22;20984;43.508;1.504;2023-07-16T00:31:23;18.60;99.90
34766;DHT22;20984;43.508;1.504;2023-07-16T00:33:48;18.70;99.90
34766;DHT22;20984;43.508;1.504;2023-07-16T00:36:14;18.70;99.90
34766;DHT22;20984;43.508;1.504;2023-07-16T00:38:40;18.70;99.90
34766;DHT22;20984;43.508;1.504;2023-07-16T00:41:06;18.60;99.90
34766;DHT22;20984;43.508;1.504;2023-07-16T00:43:32;18.60;99.90
34766;DHT22;20984;43.508;1.504;2023-07-16T00:45:58;18.60;99.90
34766;DHT22;20984;43.508;1.504;2023-07-16T00:48:24;18.60;99.90
34766;DHT22;20984;43.508;1.504;2023-07-16T00:50:52;18.60;99.90
34766;DHT22;20984;43.508;1.504;2023-07-16T00:53:18;18.60;99.90
34766;DHT22;20984;43.508;1.504;2023-07-16T00:55:45;18.60;99.90
34766;DHT22;20984;43.508;1.504;2023-07-16T00:58:11;18.50;99.90
34766;DHT22;20984;43.508;1.504;2023-07-16T01:00:38;18.50;99.90
34766;DHT22;20984;43.508;1.504;2023-07-16T01:03:08;18.50;99.90
34766;DHT22;20984;43.508;1.504;2023-07-16T01:06:36;18.50;99.90
34766;DHT22;20984;43.508;1.504;2023-07-16T01:08:52;18.50;99.90
34766;DHT22;20984;43.508;1.504;2023-07-16T01:11:19;18.50;99.90
34766;DHT22;20984;43.508;1.504;2023-07-16T01:13:45;18.40;99.90
34766;DHT22;20984;43.508;1.504;2023-07-16T01:16:24;18.40;99.90
34766;DHT22;20984;43.508;1.504;2023-07-16T01:18:51;18.40;99.90
34766;DHT22;20984;43.508;1.504;2023-07-16T01:21:19;18.40;99.90
34766;DHT22;20984;43.508;1.504;2023-07-16T01:31:42;18.30;99.90
34766;DHT22;20984;43.508;1.504;2023-07-16T01:34:09;18.20;99.90
34766;DHT22;20984;43.508;1.504;2023-07-16T01:36:36;18.20;99.90
34766;DHT22;20984;43.508;1.504;2023-07-16T01:39:03;18.20;99.90
34766;DHT22;20984;43.508;1.504;2023-07-16T01:41:29;18.20;99.90
34766;DHT22;20984;43.508;1.504;2023-07-16T01:43:55;18.20;99.90
34766;DHT22;20984;43.508;1.504;2023-07-16T01:46:20;18.20;99.90
34766;DHT22;20984;43.508;1.504;2023-07-16T01:48:46;18.20;99.90
34766;DHT22;20984;43.508;1.504;2023-07-16T01:51:12;18.20;99.90
34766;DHT22;20984;43.508;1.504;2023-07-16T01:53:40;18.10;99.90
34766;DHT22;20984;43.508;1.504;2023-07-16T01:56:05;18.10;99.90
34766;DHT22;20984;43.508;1.504;2023-07-16T01:58:31;18.10;99.90
34766;DHT22;20984;43.508;1.504;2023-07-16T02:00:57;18.10;99.90
34766;DHT22;20984;43.508;1.504;2023-07-16T02:03:23;18.10;99.90
34766;DHT22;20984;43.508;1.504;2023-07-16T02:05:49;18.10;99.90
34766;DHT22;20984;43.508;1.504;2023-07-16T02:08:14;18.10;99.90
34766;DHT22;20984;43.508;1.504;2023-07-16T02:10:40;18.00;99.90
34766;DHT22;20984;43.508;1.504;2023-07-16T02:13:06;18.10;99.90
34766;DHT22;20984;43.508;1.504;2023-07-16T02:15:31;18.00;99.90
34766;DHT22;20984;43.508;1.504;2023-07-16T02:17:57;18.00;99.90
34766;DHT22;20984;43.508;1.504;2023-07-16T02:20:22;18.00;99.90
34766;DHT22;20984;43.508;1.504;2023-07-16T02:22:48;18.00;99.90
34766;DHT22;20984;43.508;1.504;2023-07-16T02:25:14;18.00;99.90
34766;DHT22;20984;43.508;1.504;2023-07-16T02:27:39;18.00;99.90
34766;DHT22;20984;43.508;1.504;2023-07-16T02:30:05;18.00;99.90
34766;DHT22;20984;43.508;1.504;2023-07-16T02:32:33;18.00;99.90
34766;DHT22;20984;43.508;1.504;2023-07-16T02:34:58;18.00;99.90
34766;DHT22;20984;43.508;1.504;2023-07-16T02:37:24;18.00;99.90
34766;DHT22;20984;43.508;1.504;2023-07-16T02:39:50;18.00;99.90
34766;DHT22;20984;43.508;1.504;2023-07-16T02:42:15;18.00;99.90
34766;DHT22;20984;43.508;1.504;2023-07-16T02:44:41;17.90;99.90
34766;DHT22;20984;43.508;1.504;2023-07-16T02:47:13;17.90;99.90
34766;DHT22;20984;43.508;1.504;2023-07-16T02:49:39;17.90;99.90
34766;DHT22;20984;43.508;1.504;2023-07-16T02:52:05;17.90;99.90
34766;DHT22;20984;43.508;1.504;2023-07-16T02:54:31;17.90;99.90
34766;DHT22;20984;43.508;1.504;2023-07-16T02:56:57;17.90;99.90
34766;DHT22;20984;43.508;1.504;2023-07-16T02:59:23;17.90;99.90
34766;DHT22;20984;43.508;1.504;2023-07-16T03:01:49;17.90;99.90
34766;DHT22;20984;43.508;1.504;2023-07-16T03:04:15;17.90;99.90
34766;DHT22;20984;43.508;1.504;2023-07-16T03:06:40;17.90;99.90
34766;DHT22;20984;43.508;1.504;2023-07-16T03:09:06;17.90;99.90
34766;DHT22;20984;43.508;1.504;2023-07-16T03:11:32;17.90;99.90
34766;DHT22;20984;43.508;1.504;2023-07-16T03:13:57;17.90;99.90
34766;DHT22;20984;43.508;1.504;2023-07-16T03:16:23;17.90;99.90
34766;DHT22;20984;43.508;1.504;2023-07-16T03:18:49;17.90;99.90
34766;DHT22;20984;43.508;1.504;2023-07-16T03:21:14;17.90;99.90
34766;DHT22;20984;43.508;1.504;2023-07-16T03:23:40;17.90;99.90
34766;DHT22;20984;43.508;1.504;2023-07-16T03:26:06;17.90;99.90
34766;DHT22;20984;43.508;1.504;2023-07-16T03:28:31;17.90;99.90
34766;DHT22;20984;43.508;1.504;2023-07-16T03:30:57;17.90;99.90
34766;DHT22;20984;43.508;1.504;2023-07-16T03:33:23;17.90;99.90
34766;DHT22;20984;43.508;1.504;2023-07-16T03:35:49;17.90;99.90
34766;DHT22;20984;43.508;1.504;2023-07-16T03:38:15;17.80;99.90
34766;DHT22;20984;43.508;1.504;2023-07-16T03:40:46;17.80;99.90
34766;DHT22;20984;43.508;1.504;2023-07-16T03:43:12;17.90;99.90
34766;DHT22;20984;43.508;1.504;2023-07-16T03:45:38;17.90;99.90
34766;DHT22;20984;43.508;1.504;2023-07-16T03:48:04;17.90;99.90
34766;DHT22;20984;43.508;1.504;2023-07-16T03:50:29;17.80;99.90
34766;DHT22;20984;43.508;1.504;2023-07-16T03:52:55;17.80;99.90
34766;DHT22;20984;43.508;1.504;2023-07-16T03:55:21;17.80;99.90
34766;DHT22;20984;43.508;1.504;2023-07-16T03:57:47;17.80;99.90
34766;DHT22;20984;43.508;1.504;2023-07-16T04:00:12;17.80;99.90
34766;DHT22;20984;43.508;1.504;2023-07-16T04:02:38;17.80;99.90
34766;DHT22;20984;43.508;1.504;2023-07-16T04:05:04;17.80;99.90
34766;DHT22;20984;43.508;1.504;2023-07-16T04:07:30;17.90;99.90
34766;DHT22;20984;43.508;1.504;2023-07-16T04:09:55;17.80;99.90
34766;DHT22;20984;43.508;1.504;2023-07-16T04:12:21;17.90;99.90
34766;DHT22;20984;43.508;1.504;2023-07-16T04:14:47;17.90;99.90
34766;DHT22;20984;43.508;1.504;2023-07-16T04:17:13;17.90;99.90
34766;DHT22;20984;43.508;1.504;2023-07-16T04:19:38;17.90;99.90
34766;DHT22;20984;43.508;1.504;2023-07-16T04:22:04;17.80;99.90
34766;DHT22;20984;43.508;1.504;2023-07-16T04:24:30;17.90;99.90
34766;DHT22;20984;43.508;1.504;2023-07-16T04:26:56;17.80;99.90
34766;DHT22;20984;43.508;1.504;2023-07-16T04:29:22;17.80;99.90
34766;DHT22;20984;43.508;1.504;2023-07-16T04:31:47;17.80;99.90
34766;DHT22;20984;43.508;1.504;2023-07-16T04:34:13;17.80;99.90
34766;DHT22;20984;43.508;1.504;2023-07-16T04:36:39;17.90;99.90
34766;DHT22;20984;43.508;1.504;2023-07-16T04:39:05;17.90;99.90
34766;DHT22;20984;43.508;1.504;2023-07-16T04:41:31;17.90;99.90
34766;DHT22;20984;43.508;1.504;2023-07-16T04:43:56;17.90;99.90
34766;DHT22;20984;43.508;1.504;2023-07-16T04:46:22;17.90;99.90
34766;DHT22;20984;43.508;1.504;2023-07-16T04:48:48;17.90;99.90
34766;DHT22;20984;43.508;1.504;2023-07-16T04:51:13;17.90;99.90
34766;DHT22;20984;43.508;1.504;2023-07-16T04:53:39;17.90;99.90
34766;DHT22;20984;43.508;1.504;2023-07-16T04:56:13;18.00;99.90
34766;DHT22;20984;43.508;1.504;2023-07-16T04:58:39;18.00;99.90
34766;DHT22;20984;43.508;1.504;2023-07-16T05:01:05;18.00;99.90
34766;DHT22;20984;43.508;1.504;2023-07-16T05:03:30;18.00;99.90
34766;DHT22;20984;43.508;1.504;2023-07-16T05:05:56;18.10;99.90
34766;DHT22;20984;43.508;1.504;2023-07-16T05:08:22;18.10;99.90
34766;DHT22;20984;43.508;1.504;2023-07-16T05:10:47;18.10;99.90
34766;DHT22;20984;43.508;1.504;2023-07-16T05:13:13;18.10;99.90
34766;DHT22;20984;43.508;1.504;2023-07-16T05:15:42;18.20;99.90
34766;DHT22;20984;43.508;1.504;2023-07-16T05:18:08;18.20;99.90
34766;DHT22;20984;43.508;1.504;2023-07-16T05:20:34;18.20;99.90
34766;DHT22;20984;43.508;1.504;2023-07-16T05:22:59;18.20;99.90
34766;DHT22;20984;43.508;1.504;2023-07-16T05:25:25;18.20;99.90
34766;DHT22;20984;43.508;1.504;2023-07-16T05:27:51;18.30;99.90
34766;DHT22;20984;43.508;1.504;2023-07-16T05:30:16;18.30;99.90
34766;DHT22;20984;43.508;1.504;2023-07-16T05:32:42;18.30;99.90
34766;DHT22;20984;43.508;1.504;2023-07-16T05:35:08;18.30;99.90
34766;DHT22;20984;43.508;1.504;2023-07-16T05:37:33;18.40;99.90
34766;DHT22;20984;43.508;1.504;2023-07-16T05:39:59;18.40;99.90
34766;DHT22;20984;43.508;1.504;2023-07-16T05:42:25;18.50;99.90
34766;DHT22;20984;43.508;1.504;2023-07-16T05:44:50;18.50;99.90
34766;DHT22;20984;43.508;1.504;2023-07-16T05:47:16;18.60;99.90
34766;DHT22;20984;43.508;1.504;2023-07-16T05:49:42;18.70;99.90
34766;DHT22;20984;43.508;1.504;2023-07-16T05:52:07;18.70;99.90
34766;DHT22;20984;43.508;1.504;2023-07-16T05:54:34;18.80;99.90
34766;DHT22;20984;43.508;1.504;2023-07-16T05:56:59;18.90;99.90
34766;DHT22;20984;43.508;1.504;2023-07-16T05:59:25;18.90;99.90
34766;DHT22;20984;43.508;1.504;2023-07-16T06:01:51;19.00;99.90
34766;DHT22;20984;43.508;1.504;2023-07-16T06:04:17;19.00;99.90
34766;DHT22;20984;43.508;1.504;2023-07-16T06:06:43;19.00;99.90
34766;DHT22;20984;43.508;1.504;2023-07-16T06:09:08;19.10;99.90
34766;DHT22;20984;43.508;1.504;2023-07-16T06:11:34;19.20;99.90
34766;DHT22;20984;43.508;1.504;2023-07-16T06:14:00;19.20;99.90
34766;DHT22;20984;43.508;1.504;2023-07-16T06:16:26;19.30;99.90
34766;DHT22;20984;43.508;1.504;2023-07-16T06:18:51;19.40;99.90
34766;DHT22;20984;43.508;1.504;2023-07-16T06:21:17;19.40;99.90
34766;DHT22;20984;43.508;1.504;2023-07-16T06:23:43;19.50;99.90
34766;DHT22;20984;43.508;1.504;2023-07-16T06:26:09;19.50;99.90
34766;DHT22;20984;43.508;1.504;2023-07-16T06:28:34;19.60;99.90
34766;DHT22;20984;43.508;1.504;2023-07-16T06:31:00;19.50;99.90
34766;DHT22;20984;43.508;1.504;2023-07-16T06:33:25;19.60;99.90
34766;DHT22;20984;43.508;1.504;2023-07-16T06:35:52;19.70;99.90
34766;DHT22;20984;43.508;1.504;2023-07-16T06:38:18;19.70;99.90
34766;DHT22;20984;43.508;1.504;2023-07-16T06:40:48;19.80;99.90
34766;DHT22;20984;43.508;1.504;2023-07-16T06:43:15;19.90;99.90
34766;DHT22;20984;43.508;1.504;2023-07-16T06:45:40;19.90;99.90
34766;DHT22;20984;43.508;1.504;2023-07-16T06:48:06;20.00;99.90
34766;DHT22;20984;43.508;1.504;2023-07-16T06:50:32;20.20;99.90
34766;DHT22;20984;43.508;1.504;2023-07-16T06:52:57;20.30;99.90
34766;DHT22;20984;43.508;1.504;2023-07-16T06:55:23;20.30;99.90
34766;DHT22;20984;43.508;1.504;2023-07-16T06:57:48;20.40;99.90
34766;DHT22;20984;43.508;1.504;2023-07-16T07:00:14;20.50;99.90
34766;DHT22;20984;43.508;1.504;2023-07-16T07:02:41;20.60;99.90
34766;DHT22;20984;43.508;1.504;2023-07-16T07:05:07;20.80;99.90
34766;DHT22;20984;43.508;1.504;2023-07-16T07:07:33;21.00;99.90
34766;DHT22;20984;43.508;1.504;2023-07-16T07:09:58;21.10;99.90
34766;DHT22;20984;43.508;1.504;2023-07-16T07:12:24;21.30;99.90
34766;DHT22;20984;43.508;1.504;2023-07-16T07:14:50;21.50;99.90
34766;DHT22;20984;43.508;1.504;2023-07-16T07:17:15;21.60;99.90
34766;DHT22;20984;43.508;1.504;2023-07-16T07:19:43;21.70;99.90
34766;DHT22;20984;43.508;1.504;2023-07-16T07:22:08;21.80;99.90
34766;DHT22;20984;43.508;1.504;2023-07-16T07:24:34;21.90;99.90
34766;DHT22;20984;43.508;1.504;2023-07-16T07:27:00;21.80;99.90
34766;DHT22;20984;43.508;1.504;2023-07-16T07:29:25;21.70;99.90
34766;DHT22;20984;43.508;1.504;2023-07-16T07:31:52;21.80;99.90
34766;DHT22;20984;43.508;1.504;2023-07-16T07:34:18;21.70;99.90
34766;DHT22;20984;43.508;1.504;2023-07-16T07:36:44;21.70;99.90
34766;DHT22;20984;43.508;1.504;2023-07-16T07:39:10;21.70;99.90
34766;DHT22;20984;43.508;1.504;2023-07-16T07:41:36;21.60;99.90
34766;DHT22;20984;43.508;1.504;2023-07-16T07:44:02;21.60;99.90
34766;DHT22;20984;43.508;1.504;2023-07-16T07:46:27;21.60;99.90
34766;DHT22;20984;43.508;1.504;2023-07-16T07:48:53;21.50;99.90
34766;DHT22;20984;43.508;1.504;2023-07-16T07:51:20;21.50;99.90
34766;DHT22;20984;43.508;1.504;2023-07-16T07:53:46;21.80;99.90
34766;DHT22;20984;43.508;1.504;2023-07-16T07:56:11;21.90;99.90
34766;DHT22;20984;43.508;1.504;2023-07-16T07:58:37;22.10;99.90
34766;DHT22;20984;43.508;1.504;2023-07-16T08:01:08;22.30;99.90
34766;DHT22;20984;43.508;1.504;2023-07-16T08:03:35;22.30;99.90
34766;DHT22;20984;43.508;1.504;2023-07-16T08:06:01;22.40;99.90
34766;DHT22;20984;43.508;1.504;2023-07-16T08:08:27;22.50;99.90
34766;DHT22;20984;43.508;1.504;2023-07-16T08:10:53;22.60;99.90
34766;DHT22;20984;43.508;1.504;2023-07-16T08:13:19;22.70;99.90
34766;DHT22;20984;43.508;1.504;2023-07-16T08:15:45;22.70;99.90
34766;DHT22;20984;43.508;1.504;2023-07-16T08:18:11;22.90;99.90
34766;DHT22;20984;43.508;1.504;2023-07-16T08:20:37;23.10;99.90
34766;DHT22;20984;43.508;1.504;2023-07-16T08:23:02;23.20;99.90
34766;DHT22;20984;43.508;1.504;2023-07-16T08:25:28;23.30;99.90
34766;DHT22;20984;43.508;1.504;2023-07-16T08:27:54;23.40;99.90
34766;DHT22;20984;43.508;1.504;2023-07-16T08:30:19;23.50;99.90
34766;DHT22;20984;43.508;1.504;2023-07-16T08:32:45;23.40;99.90
34766;DHT22;20984;43.508;1.504;2023-07-16T08:35:11;23.20;99.90
34766;DHT22;20984;43.508;1.504;2023-07-16T08:37:45;23.10;99.90
34766;DHT22;20984;43.508;1.504;2023-07-16T08:40:12;23.00;99.90
34766;DHT22;20984;43.508;1.504;2023-07-16T08:42:39;22.70;99.90
34766;DHT22;20984;43.508;1.504;2023-07-16T08:45:06;22.60;99.90
34766;DHT22;20984;43.508;1.504;2023-07-16T08:47:34;22.80;99.90
34766;DHT22;20984;43.508;1.504;2023-07-16T08:50:00;23.00;99.90
34766;DHT22;20984;43.508;1.504;2023-07-16T08:52:27;23.20;99.90
34766;DHT22;20984;43.508;1.504;2023-07-16T08:54:54;22.80;99.90
34766;DHT22;20984;43.508;1.504;2023-07-16T08:57:20;22.80;99.90
34766;DHT22;20984;43.508;1.504;2023-07-16T08:59:50;23.00;99.90
34766;DHT22;20984;43.508;1.504;2023-07-16T09:02:17;23.20;99.90
34766;DHT22;20984;43.508;1.504;2023-07-16T09:04:44;23.40;99.90
34766;DHT22;20984;43.508;1.504;2023-07-16T09:07:11;23.40;99.90
34766;DHT22;20984;43.508;1.504;2023-07-16T09:09:37;23.20;99.90
34766;DHT22;20984;43.508;1.504;2023-07-16T09:12:02;23.10;99.90
34766;DHT22;20984;43.508;1.504;2023-07-16T09:14:28;23.10;99.90
34766;DHT22;20984;43.508;1.504;2023-07-16T09:16:54;23.40;99.90
34766;DHT22;20984;43.508;1.504;2023-07-16T09:19:20;23.70;99.90
34766;DHT22;20984;43.508;1.504;2023-07-16T09:21:49;23.90;99.90
34766;DHT22;20984;43.508;1.504;2023-07-16T09:24:16;23.90;99.90
34766;DHT22;20984;43.508;1.504;2023-07-16T09:26:52;23.60;99.90
34766;DHT22;20984;43.508;1.504;2023-07-16T09:29:18;23.80;99.90
34766;DHT22;20984;43.508;1.504;2023-07-16T09:31:59;24.00;99.90
34766;DHT22;20984;43.508;1.504;2023-07-16T09:34:29;24.10;99.90
34766;DHT22;20984;43.508;1.504;2023-07-16T09:36:56;24.20;99.90
34766;DHT22;20984;43.508;1.504;2023-07-16T09:39:22;24.30;99.90
34766;DHT22;20984;43.508;1.504;2023-07-16T09:41:49;24.20;99.90
34766;DHT22;20984;43.508;1.504;2023-07-16T09:44:15;24.10;99.90
34766;DHT22;20984;43.508;1.504;2023-07-16T09:46:42;24.10;99.90
34766;DHT22;20984;43.508;1.504;2023-07-16T09:49:08;24.20;99.90
34766;DHT22;20984;43.508;1.504;2023-07-16T09:51:38;24.30;99.90
34766;DHT22;20984;43.508;1.504;2023-07-16T09:54:04;24.20;99.90
34766;DHT22;20984;43.508;1.504;2023-07-16T09:56:52;24.40;99.90
34766;DHT22;20984;43.508;1.504;2023-07-16T09:59:25;24.60;99.90
34766;DHT22;20984;43.508;1.504;2023-07-16T10:01:53;24.70;99.90
34766;DHT22;20984;43.508;1.504;2023-07-16T10:04:19;24.90;99.90
34766;DHT22;20984;43.508;1.504;2023-07-16T10:06:57;25.00;99.90
34766;DHT22;20984;43.508;1.504;2023-07-16T10:09:34;25.00;99.90
34766;DHT22;20984;43.508;1.504;2023-07-16T10:12:17;25.00;99.90
34766;DHT22;20984;43.508;1.504;2023-07-16T10:14:55;24.90;99.90
34766;DHT22;20984;43.508;1.504;2023-07-16T10:17:25;24.60;99.90
34766;DHT22;20984;43.508;1.504;2023-07-16T10:22:46;24.40;99.90
34766;DHT22;20984;43.508;1.504;2023-07-16T10:27:48;24.60;99.90
34766;DHT22;20984;43.508;1.504;2023-07-16T10:30:14;24.90;99.90
34766;DHT22;20984;43.508;1.504;2023-07-16T10:32:41;25.10;99.90
34766;DHT22;20984;43.508;1.504;2023-07-16T10:35:08;25.20;99.90
34766;DHT22;20984;43.508;1.504;2023-07-16T10:37:34;25.30;99.90
34766;DHT22;20984;43.508;1.504;2023-07-16T10:40:01;25.30;98.50
34766;DHT22;20984;43.508;1.504;2023-07-16T10:42:31;25.20;99.30
34766;DHT22;20984;43.508;1.504;2023-07-16T10:45:04;25.20;99.40
34766;DHT22;20984;43.508;1.504;2023-07-16T10:47:35;25.10;97.40
34766;DHT22;20984;43.508;1.504;2023-07-16T10:50:04;25.00;97.20
34766;DHT22;20984;43.508;1.504;2023-07-16T10:52:30;24.90;99.90
34766;DHT22;20984;43.508;1.504;2023-07-16T10:54:56;25.20;99.90
34766;DHT22;20984;43.508;1.504;2023-07-16T10:57:24;25.20;98.70
34766;DHT22;20984;43.508;1.504;2023-07-16T10:59:57;25.40;97.90
34766;DHT22;20984;43.508;1.504;2023-07-16T11:02:24;25.60;96.90
34766;DHT22;20984;43.508;1.504;2023-07-16T11:04:51;25.40;93.50
34766;DHT22;20984;43.508;1.504;2023-07-16T11:07:21;25.30;95.70
34766;DHT22;20984;43.508;1.504;2023-07-16T11:12:16;25.40;94.60
34766;DHT22;20984;43.508;1.504;2023-07-16T11:14:44;25.60;95.40
34766;DHT22;20984;43.508;1.504;2023-07-16T11:17:11;25.80;95.10
34766;DHT22;20984;43.508;1.504;2023-07-16T11:19:37;25.80;92.60
34766;DHT22;20984;43.508;1.504;2023-07-16T11:22:04;25.90;94.20
34766;DHT22;20984;43.508;1.504;2023-07-16T11:24:45;25.90;95.70
34766;DHT22;20984;43.508;1.504;2023-07-16T11:27:27;25.90;93.50
34766;DHT22;20984;43.508;1.504;2023-07-16T11:29:56;26.10;94.70
34766;DHT22;20984;43.508;1.504;2023-07-16T11:34:56;25.70;92.20
34766;DHT22;20984;43.508;1.504;2023-07-16T11:37:24;25.80;93.60
34766;DHT22;20984;43.508;1.504;2023-07-16T11:39:49;25.90;93.20
34766;DHT22;20984;43.508;1.504;2023-07-16T11:42:23;26.10;93.10
34766;DHT22;20984;43.508;1.504;2023-07-16T11:44:49;26.30;92.00
34766;DHT22;20984;43.508;1.504;2023-07-16T11:47:15;26.40;92.60
34766;DHT22;20984;43.508;1.504;2023-07-16T11:49:40;26.30;92.20
34766;DHT22;20984;43.508;1.504;2023-07-16T11:52:07;26.20;92.20
34766;DHT22;20984;43.508;1.504;2023-07-16T11:54:33;26.40;92.80
34766;DHT22;20984;43.508;1.504;2023-07-16T11:56:58;26.50;91.40
34766;DHT22;20984;43.508;1.504;2023-07-16T11:59:24;26.50;90.40
34766;DHT22;20984;43.508;1.504;2023-07-16T12:01:50;26.50;90.30
34766;DHT22;20984;43.508;1.504;2023-07-16T12:04:16;26.30;90.10
34766;DHT22;20984;43.508;1.504;2023-07-16T12:06:42;26.10;91.40
34766;DHT22;20984;43.508;1.504;2023-07-16T12:09:08;25.90;91.50
34766;DHT22;20984;43.508;1.504;2023-07-16T12:11:34;26.20;91.70
34766;DHT22;20984;43.508;1.504;2023-07-16T12:14:00;26.30;92.20
34766;DHT22;20984;43.508;1.504;2023-07-16T12:16:25;26.60;91.90
34766;DHT22;20984;43.508;1.504;2023-07-16T12:18:51;26.90;92.00
34766;DHT22;20984;43.508;1.504;2023-07-16T12:21:16;27.20;93.40
34766;DHT22;20984;43.508;1.504;2023-07-16T12:23:42;27.10;91.90
34766;DHT22;20984;43.508;1.504;2023-07-16T12:26:08;27.10;91.70
34766;DHT22;20984;43.508;1.504;2023-07-16T12:28:34;27.00;89.90
34766;DHT22;20984;43.508;1.504;2023-07-16T12:30:59;27.00;89.30
34766;DHT22;20984;43.508;1.504;2023-07-16T12:33:25;26.70;88.70
34766;DHT22;20984;43.508;1.504;2023-07-16T12:35:51;26.90;93.70
34766;DHT22;20984;43.508;1.504;2023-07-16T12:38:17;27.00;90.80
34766;DHT22;20984;43.508;1.504;2023-07-16T12:40:42;27.20;92.10
34766;DHT22;20984;43.508;1.504;2023-07-16T12:43:08;27.40;91.80
34766;DHT22;20984;43.508;1.504;2023-07-16T12:45:34;27.40;90.90
34766;DHT22;20984;43.508;1.504;2023-07-16T12:48:00;27.60;91.40
34766;DHT22;20984;43.508;1.504;2023-07-16T12:50:25;27.60;87.10
34766;DHT22;20984;43.508;1.504;2023-07-16T12:52:53;27.60;89.00
34766;DHT22;20984;43.508;1.504;2023-07-16T12:55:19;27.60;91.20
34766;DHT22;20984;43.508;1.504;2023-07-16T12:57:44;27.70;89.90
34766;DHT22;20984;43.508;1.504;2023-07-16T13:00:10;27.60;90.60
34766;DHT22;20984;43.508;1.504;2023-07-16T13:02:36;27.70;89.40
34766;DHT22;20984;43.508;1.504;2023-07-16T13:05:02;27.70;91.10
34766;DHT22;20984;43.508;1.504;2023-07-16T13:07:29;27.70;90.30
34766;DHT22;20984;43.508;1.504;2023-07-16T13:09:55;27.40;88.10
34766;DHT22;20984;43.508;1.504;2023-07-16T13:12:21;27.60;90.80
34766;DHT22;20984;43.508;1.504;2023-07-16T13:14:46;27.90;88.40
34766;DHT22;20984;43.508;1.504;2023-07-16T13:17:12;28.00;86.90
34766;DHT22;20984;43.508;1.504;2023-07-16T13:19:38;28.10;85.90
34766;DHT22;20984;43.508;1.504;2023-07-16T13:22:04;28.20;88.20
34766;DHT22;20984;43.508;1.504;2023-07-16T13:24:29;28.30;89.90
34766;DHT22;20984;43.508;1.504;2023-07-16T13:26:55;28.50;88.40
34766;DHT22;20984;43.508;1.504;2023-07-16T13:29:20;28.60;89.30
34766;DHT22;20984;43.508;1.504;2023-07-16T13:31:46;28.80;88.80
34766;DHT22;20984;43.508;1.504;2023-07-16T13:34:12;28.80;84.30
34766;DHT22;20984;43.508;1.504;2023-07-16T13:36:38;28.60;83.50
34766;DHT22;20984;43.508;1.504;2023-07-16T13:39:04;28.40;88.50
34766;DHT22;20984;43.508;1.504;2023-07-16T13:41:30;28.60;89.80
34766;DHT22;20984;43.508;1.504;2023-07-16T13:43:56;28.70;86.50
34766;DHT22;20984;43.508;1.504;2023-07-16T13:46:21;28.60;87.50
34766;DHT22;20984;43.508;1.504;2023-07-16T13:48:47;28.60;87.30
34766;DHT22;20984;43.508;1.504;2023-07-16T13:51:13;28.80;88.10
34766;DHT22;20984;43.508;1.504;2023-07-16T13:53:38;28.90;88.00
34766;DHT22;20984;43.508;1.504;2023-07-16T13:56:04;29.10;89.10
34766;DHT22;20984;43.508;1.504;2023-07-16T13:58:30;29.10;88.40
34766;DHT22;20984;43.508;1.504;2023-07-16T14:00:55;29.20;88.00
34766;DHT22;20984;43.508;1.504;2023-07-16T14:03:21;29.10;83.90
34766;DHT22;20984;43.508;1.504;2023-07-16T14:05:47;29.40;85.20
34766;DHT22;20984;43.508;1.504;2023-07-16T14:08:13;29.80;85.30
34766;DHT22;20984;43.508;1.504;2023-07-16T14:10:38;30.20;88.50
34766;DHT22;20984;43.508;1.504;2023-07-16T14:13:04;30.30;83.30
34766;DHT22;20984;43.508;1.504;2023-07-16T14:15:29;30.10;83.50
34766;DHT22;20984;43.508;1.504;2023-07-16T14:17:55;30.10;82.40
34766;DHT22;20984;43.508;1.504;2023-07-16T14:20:21;30.20;82.40
34766;DHT22;20984;43.508;1.504;2023-07-16T14:22:46;29.90;81.30
34766;DHT22;20984;43.508;1.504;2023-07-16T14:25:12;29.90;84.80
34766;DHT22;20984;43.508;1.504;2023-07-16T14:27:38;30.20;88.30
34766;DHT22;20984;43.508;1.504;2023-07-16T14:30:04;30.20;80.90
34766;DHT22;20984;43.508;1.504;2023-07-16T14:32:30;30.10;79.90
34766;DHT22;20984;43.508;1.504;2023-07-16T14:34:57;30.30;79.60
34766;DHT22;20984;43.508;1.504;2023-07-16T14:37:23;31.00;88.20
34766;DHT22;20984;43.508;1.504;2023-07-16T14:39:48;32.00;79.30
34766;DHT22;20984;43.508;1.504;2023-07-16T14:42:14;32.90;78.40
34766;DHT22;20984;43.508;1.504;2023-07-16T14:44:39;33.50;76.70
34766;DHT22;20984;43.508;1.504;2023-07-16T14:47:05;34.40;75.20
34766;DHT22;20984;43.508;1.504;2023-07-16T14:49:31;35.10;72.30
34766;DHT22;20984;43.508;1.504;2023-07-16T14:51:57;35.50;71.10
34766;DHT22;20984;43.508;1.504;2023-07-16T14:54:23;35.60;66.50
34766;DHT22;20984;43.508;1.504;2023-07-16T14:56:48;36.10;67.80
34766;DHT22;20984;43.508;1.504;2023-07-16T14:59:14;36.40;65.20
34766;DHT22;20984;43.508;1.504;2023-07-16T15:01:40;36.90;66.10
34766;DHT22;20984;43.508;1.504;2023-07-16T15:04:05;37.40;64.90
34766;DHT22;20984;43.508;1.504;2023-07-16T15:06:31;37.00;64.10
34766;DHT22;20984;43.508;1.504;2023-07-16T15:08:57;36.80;63.80
34766;DHT22;20984;43.508;1.504;2023-07-16T15:11:22;37.40;63.50
34766;DHT22;20984;43.508;1.504;2023-07-16T15:13:48;37.30;62.50
34766;DHT22;20984;43.508;1.504;2023-07-16T15:16:14;37.60;62.40
34766;DHT22;20984;43.508;1.504;2023-07-16T15:18:40;37.60;64.10
34766;DHT22;20984;43.508;1.504;2023-07-16T15:21:06;37.30;59.80
34766;DHT22;20984;43.508;1.504;2023-07-16T15:23:32;36.90;60.30
34766;DHT22;20984;43.508;1.504;2023-07-16T15:26:04;36.70;60.50
34766;DHT22;20984;43.508;1.504;2023-07-16T15:28:32;36.40;65.70
34766;DHT22;20984;43.508;1.504;2023-07-16T15:31:00;36.40;69.40
34766;DHT22;20984;43.508;1.504;2023-07-16T15:33:26;36.50;63.60
34766;DHT22;20984;43.508;1.504;2023-07-16T15:35:52;36.80;63.20
34766;DHT22;20984;43.508;1.504;2023-07-16T15:38:17;36.70;64.50
34766;DHT22;20984;43.508;1.504;2023-07-16T15:40:43;36.90;61.30
34766;DHT22;20984;43.508;1.504;2023-07-16T15:43:09;37.90;61.50
34766;DHT22;20984;43.508;1.504;2023-07-16T15:45:34;38.20;58.80